Time;durP1;ratioP1;P1;durP2;ratioP2;P2;SDS_P1;SDS_P2;PMS_P1;PMS_P2;Temp;Humidity;BMP_temperature;BMP_pressure;BME280_temperature;BME280_humidity;BME280_pressure;Samples;Min_cycle;Max_cycle;Signal;HPM_P1;HPM_P2
2022/04/18 00:00:08;;;;;;;3.13;2.30;;;;;;;7.65;29.92;99784.66;5060752;28;20055;-76
2022/04/18 00:02:34;;;;;;;5.03;1.83;;;;;;;7.55;29.95;99789.09;5111386;28;20065;-73
2022/04/18 00:05:00;;;;;;;3.57;2.17;;;;;;;7.47;30.05;99787.13;5110865;28;20139;-73
2022/04/18 00:07:26;;;;;;;3.70;2.17;;;;;;;7.39;30.02;99791.41;5059915;28;20047;-73
2022/04/18 00:09:52;;;;;;;5.60;2.40;;;;;;;7.37;30.06;99793.34;5076882;28;20044;-72
2022/04/18 00:12:20;;;;;;;5.17;2.40;;;;;;;7.39;30.24;99775.56;5093143;28;20052;-73
2022/04/18 00:14:46;;;;;;;4.60;2.40;;;;;;;7.32;30.13;99779.72;5093366;28;20062;-73
2022/04/18 00:17:12;;;;;;;4.43;2.40;;;;;;;7.36;30.29;99781.09;5058386;28;20043;-73
2022/04/18 00:19:38;;;;;;;7.73;2.27;;;;;;;7.35;30.35;99785.53;5059953;28;20151;-76
2022/04/18 00:22:05;;;;;;;3.47;2.27;;;;;;;7.32;30.67;99782.34;5060058;28;20084;-73
2022/04/18 00:24:31;;;;;;;4.23;2.37;;;;;;;7.06;30.56;99752.91;5059577;28;20036;-73
2022/04/18 00:26:57;;;;;;;5.43;2.03;;;;;;;7.11;30.49;99777.13;5076415;28;20048;-73
2022/04/18 00:29:23;;;;;;;6.50;2.17;;;;;;;7.18;30.60;99778.25;5076812;28;20138;-73
2022/04/18 00:31:48;;;;;;;6.47;2.33;;;;;;;7.13;30.63;99780.47;5059996;28;20048;-73
2022/04/18 00:34:15;;;;;;;3.90;2.23;;;;;;;7.09;30.72;99767.69;5093461;28;20043;-74
2022/04/18 00:36:41;;;;;;;4.37;2.30;;;;;;;7.20;30.68;99780.75;5076615;28;20040;-74
2022/04/18 00:39:07;;;;;;;5.47;2.30;;;;;;;7.10;30.82;99764.91;5110775;28;20054;-74
2022/04/18 00:41:34;;;;;;;3.60;2.40;;;;;;;7.04;30.91;99769.88;5060930;28;20036;-73
2022/04/18 00:44:00;;;;;;;7.77;2.90;;;;;;;7.01;30.92;99772.78;5077164;28;20048;-74
2022/04/18 00:46:27;;;;;;;16.10;3.20;;;;;;;6.97;31.20;99771.34;5077544;28;20404;-73
2022/04/18 00:48:54;;;;;;;8.90;3.00;;;;;;;7.21;31.21;99779.81;5059708;28;20047;-74
2022/04/18 00:51:21;;;;;;;6.80;3.13;;;;;;;7.16;31.30;99776.72;5111448;28;20052;-74
2022/04/18 00:53:48;;;;;;;8.00;2.60;;;;;;;7.13;31.16;99766.44;5059469;28;20062;-74
2022/04/18 00:56:16;;;;;;;6.07;2.53;;;;;;;7.15;31.20;99775.06;5110296;28;20062;-74
2022/04/18 00:58:42;;;;;;;8.30;2.43;;;;;;;6.93;31.12;99776.91;5076068;28;20047;-74
2022/04/18 01:01:09;;;;;;;4.03;2.53;;;;;;;6.86;31.36;99759.91;5076762;28;20096;-74
2022/04/18 01:03:36;;;;;;;4.93;2.60;;;;;;;6.88;31.34;99768.56;5093096;28;20039;-74
2022/04/18 01:06:04;;;;;;;7.03;2.10;;;;;;;6.86;31.46;99765.19;5076432;28;20043;-73
2022/04/18 01:08:32;;;;;;;6.63;2.23;;;;;;;6.96;31.68;99767.91;5093235;28;20077;-74
2022/04/18 01:10:58;;;;;;;6.13;2.47;;;;;;;6.52;31.66;99736.53;5092776;28;20118;-74
2022/04/18 01:13:48;;;;;;;4.25;2.20;;;;;;;6.92;31.57;99750.63;5063606;28;20108;-74
2022/04/18 01:16:33;;;;;;;3.97;2.30;;;;;;;6.61;31.82;99735.78;5080959;28;20234;-74
2022/04/18 01:19:13;;;;;;;3.38;2.10;;;;;;;6.48;32.03;99743.88;5062229;28;20046;-74
2022/04/18 01:21:58;;;;;;;8.00;2.30;;;;;;;6.56;32.24;99746.72;5094672;28;20063;-73
2022/04/18 01:30:20;;;;;;;7.10;2.60;;;;;;;6.45;32.34;99738.88;5090918;28;20035;-73
2022/04/18 01:32:46;;;;;;;6.30;2.90;;;;;;;6.44;32.77;99742.44;5091925;28;20122;-73
2022/04/18 01:35:12;;;;;;;6.40;2.70;;;;;;;6.38;32.76;99739.50;5059184;28;20163;-74
2022/04/18 01:37:39;;;;;;;9.87;2.77;;;;;;;6.34;32.77;99735.44;5059841;28;20067;-73
2022/04/18 01:40:08;;;;;;;8.87;3.03;;;;;;;6.33;33.10;99733.78;5076253;28;20046;-73
2022/04/18 01:42:34;;;;;;;6.67;2.50;;;;;;;6.29;33.09;99745.53;5075473;28;20051;-73
2022/04/18 01:45:00;;;;;;;8.50;2.40;;;;;;;6.22;33.09;99737.31;5059010;28;20130;-73
2022/04/18 01:47:28;;;;;;;5.97;2.63;;;;;;;6.47;32.72;99742.19;5092983;28;20043;-73
2022/04/18 01:49:54;;;;;;;5.93;2.83;;;;;;;6.53;32.64;99746.13;5059263;28;20036;-73
2022/04/18 01:52:21;;;;;;;6.90;2.70;;;;;;;6.31;33.13;99752.38;5076355;28;20049;-73
2022/04/18 01:54:46;;;;;;;9.63;3.00;;;;;;;6.22;33.18;99747.88;5076221;28;20444;-73
2022/04/18 01:57:14;;;;;;;5.73;2.87;;;;;;;6.18;33.65;99759.63;5060260;28;20579;-75
2022/04/18 01:59:44;;;;;;;5.67;2.63;;;;;;;6.16;33.40;99751.03;5076589;28;20051;-74
2022/04/18 02:02:11;;;;;;;5.25;2.50;;;;;;;6.10;33.34;99754.16;5076846;28;20043;-74
2022/04/18 02:04:39;;;;;;;4.70;2.57;;;;;;;6.06;33.47;99746.63;5058819;28;20130;-74
2022/04/18 02:07:10;;;;;;;9.43;2.80;;;;;;;6.02;33.56;99750.47;5059920;28;20150;-74
2022/04/18 02:09:38;;;;;;;3.20;2.67;;;;;;;6.02;33.81;99753.13;5076593;28;20078;-74
2022/04/18 02:12:06;;;;;;;8.30;2.60;;;;;;;6.15;33.83;99757.25;5075696;28;20043;-74
2022/04/18 02:14:41;;;;;;;9.53;3.60;;;;;;;5.87;33.97;99735.94;5092813;28;20108;-74
2022/04/18 02:17:07;;;;;;;7.10;3.13;;;;;;;6.02;34.02;99756.59;5076084;28;20051;-74
2022/04/18 02:19:33;;;;;;;5.20;2.67;;;;;;;6.07;34.05;99762.34;5058605;28;20058;-72
2022/04/18 02:21:59;;;;;;;8.27;3.17;;;;;;;6.07;34.38;99762.34;5058456;28;20044;-72
2022/04/18 02:24:24;;;;;;;6.73;2.17;;;;;;;6.01;34.46;99754.91;5058542;28;20135;-71
2022/04/18 02:26:50;;;;;;;7.60;2.80;;;;;;;5.95;34.52;99752.78;5075245;28;20074;-72
2022/04/18 02:29:17;;;;;;;8.20;2.73;;;;;;;5.99;34.55;99756.00;5058581;28;20048;-73
2022/04/18 02:34:27;;;;;;;5.17;2.50;;;;;;;5.89;34.61;99752.47;5078293;28;20225;-73
2022/04/18 02:36:54;;;;;;;4.43;2.60;;;;;;;5.96;34.69;99751.84;5075740;28;20050;-73
2022/04/18 02:39:22;;;;;;;6.10;2.77;;;;;;;6.13;34.41;99747.78;5075628;28;20048;-73
2022/04/18 02:41:49;;;;;;;6.67;2.83;;;;;;;6.19;34.27;99757.84;5078252;28;20050;-73
2022/04/18 02:44:15;;;;;;;7.40;2.97;;;;;;;6.04;34.57;99753.84;5095885;28;20044;-73
2022/04/18 02:46:41;;;;;;;7.10;2.40;;;;;;;6.18;34.45;99756.97;5078963;28;20035;-72
2022/04/18 02:49:07;;;;;;;5.77;2.80;;;;;;;6.20;34.38;99756.84;5078585;28;20467;-72
2022/04/18 02:51:33;;;;;;;4.43;2.77;;;;;;;6.33;34.03;99762.78;5061731;28;20036;-72
2022/04/18 02:54:05;;;;;;;9.03;2.90;;;;;;;6.34;34.10;99753.91;5062857;28;20496;-72
2022/04/18 02:56:35;;;;;;;8.20;2.90;;;;;;;6.57;34.40;99764.22;5077956;28;20451;-72
2022/04/18 02:59:01;;;;;;;4.80;2.67;;;;;;;6.45;34.25;99767.88;5113221;28;20082;-72
2022/04/18 03:01:27;;;;;;;7.73;3.20;;;;;;;6.41;34.33;99757.72;5078551;28;20401;-71
2022/04/18 03:03:56;;;;;;;6.33;2.97;;;;;;;6.28;34.38;99735.97;5062179;28;20089;-72
2022/04/18 03:06:22;;;;;;;5.90;2.57;;;;;;;6.43;34.46;99756.63;5094968;28;20047;-72
2022/04/18 03:08:48;;;;;;;7.97;3.23;;;;;;;6.50;34.40;99765.66;5061514;28;20048;-74
2022/04/18 03:11:13;;;;;;;8.97;3.07;;;;;;;6.52;34.38;99752.34;5061503;28;20134;-72
2022/04/18 03:13:47;;;;;;;6.77;2.77;;;;;;;6.49;34.44;99736.78;5061525;28;20044;-71
2022/04/18 03:16:24;;;;;;;6.40;3.03;;;;;;;6.56;34.45;99746.72;5081703;28;20047;-71
2022/04/18 03:18:50;;;;;;;10.23;3.00;;;;;;;6.63;34.49;99755.78;5112294;27;20052;-71
2022/04/18 03:21:18;;;;;;;8.27;2.90;;;;;;;6.60;34.41;99734.06;5061497;28;20044;-71
2022/04/18 03:23:49;;;;;;;;;;;;;;;7.16;33.88;99756.44;5063910;28;20458;-71
2022/04/18 03:26:30;;;;;;;12.73;2.83;;;;;;;6.80;34.40;99751.69;5082487;28;20032;-71
2022/04/18 03:29:02;;;;;;;9.00;3.53;;;;;;;6.85;34.18;99760.91;5063188;28;20055;-72
2022/04/18 03:31:28;;;;;;;6.17;2.97;;;;;;;6.88;34.52;99760.63;5061819;28;20135;-74
2022/04/18 03:33:54;;;;;;;8.93;3.13;;;;;;;6.95;34.51;99752.19;5061439;28;20035;-75
2022/04/18 03:41:49;;;;;;;16.47;3.10;;;;;;;6.71;34.90;99720.81;5080408;28;20518;-77
2022/04/18 03:44:17;;;;;;;12.93;3.17;;;;;;;7.19;34.96;99748.25;5078142;28;20039;-73
2022/04/18 03:46:43;;;;;;;6.90;3.50;;;;;;;7.06;35.10;99738.91;5078134;28;20051;-74
2022/04/18 03:49:11;;;;;;;13.70;3.57;;;;;;;7.14;35.06;99752.25;5078390;28;20428;-73
2022/04/18 03:51:40;;;;;;;8.13;3.43;;;;;;;7.22;35.33;99741.84;5077296;28;20040;-73
2022/04/18 03:54:11;;;;;;;7.20;3.13;;;;;;;7.32;34.99;99751.47;5061634;28;20040;-74
2022/04/18 03:56:37;;;;;;;11.13;3.27;;;;;;;7.40;35.11;99743.72;5061169;28;20104;-74
2022/04/18 03:59:06;;;;;;;10.43;3.00;;;;;;;7.57;34.96;99750.13;5077772;28;20043;-75
2022/04/18 04:01:36;;;;;;;14.27;3.03;;;;;;;7.64;35.38;99761.84;5062397;28;20043;-76
2022/04/18 04:04:03;;;;;;;9.20;3.20;;;;;;;7.64;35.16;99744.16;5060698;28;20051;-74
2022/04/18 04:06:29;;;;;;;9.83;3.63;;;;;;;7.80;35.23;99751.56;5077852;28;20031;-75
2022/04/18 04:08:56;;;;;;;12.50;3.60;;;;;;;7.90;35.01;99752.44;5077555;28;20048;-74
2022/04/18 04:11:29;;;;;;;9.53;3.53;;;;;;;7.97;35.02;99748.25;5079065;28;20135;-72
2022/04/18 04:13:55;;;;;;;9.37;3.67;;;;;;;8.01;35.17;99745.19;5093900;28;20500;-72
2022/04/18 04:16:21;;;;;;;16.17;4.87;;;;;;;8.06;35.18;99753.53;5060542;28;20044;-72
2022/04/18 04:18:51;;;;;;;11.27;4.10;;;;;;;8.19;35.27;99755.91;5060400;28;20139;-73
2022/04/18 04:21:17;;;;;;;10.87;4.03;;;;;;;8.15;34.96;99739.47;5094631;28;20055;-72
2022/04/18 04:23:43;;;;;;;8.90;3.73;;;;;;;8.36;35.05;99755.22;5089775;28;20536;-66
2022/04/18 04:26:33;;;;;;;14.73;4.10;;;;;;;8.49;34.96;99746.00;5093628;28;20486;-67
2022/04/18 04:29:00;;;;;;;13.57;4.17;;;;;;;8.58;35.18;99741.66;5110391;28;20043;-67
2022/04/18 04:31:55;;;;;;;7.37;3.80;;;;;;;8.61;34.91;99741.38;5095662;28;20047;-67
2022/04/18 04:34:21;;;;;;;13.87;3.70;;;;;;;8.69;35.06;99752.09;5109230;28;20075;-66
2022/04/18 04:37:02;;;;;;;11.98;4.03;;;;;;;8.70;35.26;99752.94;5109282;28;20043;-68
2022/04/18 04:39:28;;;;;;;10.37;4.07;;;;;;;8.63;34.99;99720.88;5108699;28;20051;-67
2022/04/18 04:41:53;;;;;;;9.33;3.97;;;;;;;9.03;34.78;99753.22;5109194;28;20043;-68
2022/04/18 04:44:19;;;;;;;6.97;3.57;;;;;;;9.08;34.85;99743.03;5115220;28;20096;-66
2022/04/18 04:46:57;;;;;;;8.18;3.70;;;;;;;9.13;34.84;99738.16;5091398;28;20039;-65
2022/04/18 04:49:25;;;;;;;16.40;4.07;;;;;;;9.28;34.77;99731.38;5092221;28;20066;-69
2022/04/18 04:52:14;;;;;;;10.05;4.10;;;;;;;9.35;34.69;99736.94;5109314;28;20556;-69
2022/04/18 04:54:42;;;;;;;10.23;5.17;;;;;;;9.41;34.61;99745.09;5092206;28;20035;-67
2022/04/18 04:57:11;;;;;;;9.82;3.95;;;;;;;9.42;35.05;99744.13;5060472;28;20165;-71
2022/04/18 04:59:55;;;;;;;10.98;4.15;;;;;;;9.45;34.80;99737.69;5109974;28;20043;-68
2022/04/18 05:02:24;;;;;;;13.50;3.95;;;;;;;9.57;34.80;99747.94;5109154;28;20039;-68
2022/04/18 05:04:50;;;;;;;9.40;3.92;;;;;;;9.65;34.44;99739.25;5107728;28;20044;-68
2022/04/18 05:07:16;;;;;;;8.63;3.70;;;;;;;9.64;34.63;99740.25;5073342;28;20176;-68
2022/04/18 05:10:10;;;;;;;8.02;4.35;;;;;;;9.88;34.54;99733.38;5106201;28;20057;-67
2022/04/18 05:12:37;;;;;;;8.55;3.95;;;;;;;9.95;34.31;99722.97;5088817;28;20456;-67
2022/04/18 05:15:04;;;;;;;8.57;4.25;;;;;;;10.01;34.27;99709.06;5108205;28;20036;-67
2022/04/18 05:17:39;;;;;;;16.08;4.65;;;;;;;10.15;33.89;99732.47;5107860;28;20043;-66
2022/04/18 05:20:10;;;;;;;5.88;3.45;;;;;;;10.31;33.97;99739.72;5091035;28;20043;-67
2022/04/18 05:22:39;;;;;;;15.27;4.60;;;;;;;10.42;33.72;99742.13;5108343;28;20126;-66
2022/04/18 05:25:09;;;;;;;15.18;4.57;;;;;;;10.59;33.64;99742.13;5108843;28;20496;-66
2022/04/18 05:27:40;;;;;;;8.77;4.00;;;;;;;10.47;33.40;99724.75;5090555;28;20043;-67
2022/04/18 05:30:21;;;;;;;7.90;3.65;;;;;;;10.71;33.17;99745.34;5105315;28;20121;-66
2022/04/18 05:32:47;;;;;;;10.63;4.00;;;;;;;10.72;32.78;99747.84;5099374;28;20501;-67
2022/04/18 05:35:13;;;;;;;10.95;3.88;;;;;;;10.83;32.54;99749.38;5089974;28;20134;-67
2022/04/18 05:37:40;;;;;;;8.20;4.10;;;;;;;11.05;32.19;99746.22;5071544;28;20511;-67
2022/04/18 05:40:27;;;;;;;8.02;3.85;;;;;;;11.29;31.63;99748.97;5063905;28;20536;-67
2022/04/18 05:42:54;;;;;;;7.55;3.97;;;;;;;11.50;31.08;99744.91;5074669;28;20089;-71
2022/04/18 05:45:22;;;;;;;8.48;3.75;;;;;;;11.59;31.04;99751.09;5087819;28;20488;-67
2022/04/18 05:47:58;;;;;;;9.13;3.70;;;;;;;11.73;30.70;99740.69;5089906;28;20065;-68
2022/04/18 05:50:26;;;;;;;5.50;3.00;;;;;;;11.82;30.30;99741.53;5088281;28;20044;-70
2022/04/18 05:53:16;;;;;;;8.00;3.60;;;;;;;11.87;30.00;99728.56;5075086;28;20043;-68
2022/04/18 05:56:08;;;;;;;5.60;3.22;;;;;;;11.99;29.61;99742.41;5073064;28;20488;-68
2022/04/18 05:58:45;;;;;;;8.55;3.60;;;;;;;12.09;29.49;99738.56;5088352;28;20048;-69
2022/04/18 06:01:30;;;;;;;5.60;3.25;;;;;;;12.25;29.24;99748.41;5088099;28;20093;-69
2022/04/18 06:03:57;;;;;;;6.65;3.20;;;;;;;12.30;29.23;99744.22;5105563;28;20077;-68
2022/04/18 06:06:23;;;;;;;7.03;3.33;;;;;;;12.38;29.02;99751.41;5071320;28;20032;-67
2022/04/18 06:08:50;;;;;;;10.20;3.65;;;;;;;12.52;28.57;99750.72;5071308;28;20520;-68
2022/04/18 06:11:24;;;;;;;9.63;3.65;;;;;;;12.64;28.48;99744.06;5088095;28;20048;-68
2022/04/18 06:13:57;;;;;;;5.82;3.13;;;;;;;12.69;28.51;99736.38;5057351;28;20052;-67
2022/04/18 06:16:26;;;;;;;8.30;3.22;;;;;;;12.96;28.14;99736.03;5091202;28;20130;-68
2022/04/18 06:18:52;;;;;;;6.95;3.00;;;;;;;12.78;27.83;99738.03;5091533;28;20040;-68
2022/04/18 06:21:17;;;;;;;6.93;2.90;;;;;;;12.95;27.86;99735.19;5041936;28;20140;-69
2022/04/18 06:23:45;;;;;;;7.53;3.30;;;;;;;13.14;27.51;99732.16;5091612;28;20599;-67
2022/04/18 06:26:48;;;;;;;6.20;2.80;;;;;;;13.41;27.50;99723.69;5033175;28;20036;-69
2022/04/18 06:29:14;;;;;;;6.75;2.92;;;;;;;13.59;27.09;99728.78;5054112;28;20052;-69
2022/04/18 06:31:54;;;;;;;9.77;2.67;;;;;;;13.77;26.60;99724.00;5074436;28;20081;-70
2022/04/18 06:34:21;;;;;;;10.60;2.38;;;;;;;13.72;26.23;99710.34;5092349;28;20093;-68
2022/04/18 06:36:48;;;;;;;6.70;2.55;;;;;;;14.09;25.63;99741.66;5108694;28;20047;-68
2022/04/18 06:39:36;;;;;;;5.07;2.30;;;;;;;14.45;25.11;99718.69;5092078;28;20052;-68
2022/04/18 06:42:28;;;;;;;8.43;2.38;;;;;;;14.69;24.53;99737.16;5074249;28;20044;-68
2022/04/18 06:45:00;;;;;;;14.07;2.20;;;;;;;14.81;24.17;99730.38;5092264;28;20046;-67
2022/04/18 06:47:26;;;;;;;5.70;2.90;;;;;;;14.74;23.73;99716.06;5057513;28;20480;-67
2022/04/18 06:50:08;;;;;;;6.53;2.20;;;;;;;15.25;23.66;99731.22;5075993;28;20047;-68
2022/04/18 06:52:54;;;;;;;3.20;1.92;;;;;;;15.66;23.14;99748.47;5091602;28;20059;-68
2022/04/18 06:58:52;;;;;;;4.07;1.80;;;;;;;15.99;22.55;99738.13;5064342;28;20047;-68
2022/04/18 07:01:19;;;;;;;3.10;2.08;;;;;;;16.36;22.32;99725.28;5108524;28;20044;-69
2022/04/18 07:03:45;;;;;;;6.80;2.47;;;;;;;16.60;21.88;99734.81;5091889;28;20044;-68
2022/04/18 07:06:11;;;;;;;7.95;3.95;;;;;;;16.71;21.64;99736.97;5073999;28;20040;-68
2022/04/18 07:08:38;;;;;;;8.00;2.83;;;;;;;16.57;21.32;99703.88;5090130;28;20378;-68
2022/04/18 07:11:24;;;;;;;5.47;2.25;;;;;;;16.60;21.09;99737.50;5091190;28;20043;-68
2022/04/18 07:13:50;;;;;;;2.22;1.70;;;;;;;16.57;21.00;99730.69;5090225;28;20452;-67
2022/04/18 07:16:15;;;;;;;7.93;2.03;;;;;;;16.87;20.86;99728.63;5090119;28;20256;-69
2022/04/18 07:18:41;;;;;;;8.25;2.00;;;;;;;16.99;20.57;99719.00;5073148;28;20052;-71
2022/04/18 07:21:12;;;;;;;7.22;2.20;;;;;;;17.06;20.41;99722.56;5090517;28;20044;-68
2022/04/18 07:23:40;;;;;;;8.48;1.55;;;;;;;17.43;19.98;99719.47;5073750;28;20058;-68
2022/04/18 07:26:06;;;;;;;4.63;1.90;;;;;;;17.68;19.67;99725.97;5056872;28;20455;-69
2022/04/18 07:28:38;;;;;;;5.45;2.45;;;;;;;17.99;19.09;99720.91;5040045;28;20052;-69
2022/04/18 07:31:08;;;;;;;9.20;2.22;;;;;;;18.50;18.93;99729.28;5074368;28;20569;-70
2022/04/18 07:33:35;;;;;;;8.20;2.05;;;;;;;18.80;18.21;99727.84;5056863;28;20047;-69
2022/04/18 07:36:04;;;;;;;2.95;1.60;;;;;;;19.27;17.68;99724.88;5090537;28;20036;-71
2022/04/18 07:38:49;;;;;;;3.35;1.60;;;;;;;19.99;17.10;99740.72;5056482;28;20040;-70
2022/04/18 07:41:19;;;;;;;5.53;2.00;;;;;;;21.71;15.64;99719.09;5061010;28;20448;-69
2022/04/18 07:43:45;;;;;;;11.60;1.85;;;;;;;23.85;13.82;99708.34;5105207;28;20062;-69
2022/04/18 07:46:13;;;;;;;6.15;1.60;;;;;;;25.95;11.87;99723.63;5087509;28;20048;-70
2022/04/18 07:48:39;;;;;;;4.30;1.70;;;;;;;27.44;10.82;99709.69;5109592;28;20067;-69
2022/04/18 07:53:49;;;;;;;4.15;1.83;;;;;;;31.06;8.68;99698.78;5127182;27;20043;-70
2022/04/18 07:56:15;;;;;;;6.18;1.80;;;;;;;31.73;7.90;99704.03;5109138;28;20473;-71
2022/04/18 07:58:41;;;;;;;6.45;2.10;;;;;;;32.34;7.74;99720.50;5109590;28;20085;-70
2022/04/18 08:01:20;;;;;;;6.78;1.90;;;;;;;32.16;6.97;99702.09;5077947;28;20039;-71
2022/04/18 08:03:47;;;;;;;3.72;1.73;;;;;;;32.56;7.35;99702.34;5109680;28;20040;-70
2022/04/18 08:06:13;;;;;;;5.32;1.70;;;;;;;33.75;6.78;99702.34;5105483;27;20595;-72
2022/04/18 08:08:46;;;;;;;14.30;1.70;;;;;;;33.68;6.77;99702.75;5090639;28;20035;-69
2022/04/18 08:11:14;;;;;;;9.70;1.67;;;;;;;34.54;5.98;99698.06;5093226;28;20122;-71
2022/04/18 08:13:47;;;;;;;9.98;1.90;;;;;;;35.35;5.36;99695.66;5109487;28;20043;-72
2022/04/18 08:16:31;;;;;;;9.30;1.80;;;;;;;35.81;5.58;99700.69;5110055;28;20572;-72
2022/04/18 08:19:04;;;;;;;6.05;1.42;;;;;;;35.97;4.84;99696.34;5076629;28;20040;-71
2022/04/18 08:21:30;;;;;;;7.80;2.10;;;;;;;36.14;4.81;99692.78;5076198;28;20457;-71
2022/04/18 08:23:56;;;;;;;7.80;1.55;;;;;;;35.69;5.06;99670.09;5092815;28;20100;-72
2022/04/18 08:26:40;;;;;;;13.57;1.40;;;;;;;31.33;5.80;99670.78;5110358;28;20093;-70
2022/04/18 08:29:18;;;;;;;4.50;1.65;;;;;;;32.34;6.52;99684.78;5108593;28;20083;-70
2022/04/18 08:32:04;;;;;;;13.23;2.25;;;;;;;33.12;6.04;99682.09;5095032;28;20054;-70
2022/04/18 08:34:32;;;;;;;16.95;2.35;;;;;;;32.98;6.01;99657.31;5092518;28;20153;-69
2022/04/18 08:36:58;;;;;;;9.65;1.63;;;;;;;33.69;5.66;99676.03;5074639;28;20039;-69
2022/04/18 08:39:31;;;;;;;3.67;1.40;;;;;;;32.76;5.08;99678.31;5109094;28;20048;-70
2022/04/18 08:42:10;;;;;;;3.45;1.55;;;;;;;32.79;6.01;99672.22;5093655;28;20156;-70
2022/04/18 08:44:43;;;;;;;7.20;1.80;;;;;;;32.95;6.12;99670.88;5092091;28;20046;-70
2022/04/18 08:47:09;;;;;;;7.30;1.98;;;;;;;33.30;6.02;99675.69;5058398;28;20492;-71
2022/04/18 08:55:26;;;;;;;9.85;1.98;;;;;;;35.07;5.04;99636.25;5114530;27;20043;-68
2022/04/18 08:57:53;;;;;;;3.92;1.80;;;;;;;35.78;4.71;99663.44;5091653;28;20408;-70
2022/04/18 09:00:19;;;;;;;4.47;1.35;;;;;;;35.94;4.49;99661.06;5091910;28;20058;-71
2022/04/18 09:02:52;;;;;;;2.33;1.40;;;;;;;35.74;4.24;99637.59;5076394;28;20050;-70
2022/04/18 09:05:24;;;;;;;9.55;1.70;;;;;;;35.92;3.99;99632.13;5109469;28;20047;-71
2022/04/18 09:07:58;;;;;;;4.95;1.40;;;;;;;36.68;4.00;99643.13;5074760;28;20063;-70
2022/04/18 09:10:28;;;;;;;5.38;1.48;;;;;;;36.57;3.56;99657.63;5092941;28;20170;-70
2022/04/18 09:13:04;;;;;;;13.02;1.80;;;;;;;37.20;3.68;99643.78;5108357;28;20042;-70
2022/04/18 09:15:55;;;;;;;3.88;1.48;;;;;;;36.67;3.72;99637.94;5108303;28;20134;-69
2022/04/18 09:18:24;;;;;;;1.85;1.25;;;;;;;36.37;3.83;99637.00;5058176;28;20158;-71
2022/04/18 09:21:09;;;;;;;3.65;1.50;;;;;;;36.49;3.84;99628.84;5094592;28;20046;-71
2022/04/18 09:23:39;;;;;;;6.20;1.50;;;;;;;36.66;3.83;99616.94;5092502;28;20150;-71
2022/04/18 09:26:24;;;;;;;7.57;1.50;;;;;;;37.60;3.75;99635.97;5110128;28;20043;-72
2022/04/18 09:28:50;;;;;;;3.65;1.35;;;;;;;37.47;3.24;99621.19;5090724;28;20083;-70
2022/04/18 09:31:19;;;;;;;9.45;1.63;;;;;;;37.37;3.53;99626.31;5109481;28;20043;-72
2022/04/18 09:33:56;;;;;;;3.53;1.40;;;;;;;36.34;3.59;99612.75;5108611;28;20500;-71
2022/04/18 09:36:23;;;;;;;7.57;1.77;;;;;;;37.08;3.34;99597.41;5075655;28;20285;-70
2022/04/18 09:38:57;;;;;;;4.00;1.60;;;;;;;37.95;3.03;99615.97;5108430;28;20070;-73
2022/04/18 09:41:35;;;;;;;4.68;1.30;;;;;;;37.04;3.29;99620.56;5109481;28;20489;-72
2022/04/18 09:44:30;;;;;;;4.07;1.52;;;;;;;37.23;3.63;99612.69;5096676;28;20089;-72
2022/04/18 09:46:57;;;;;;;4.57;1.80;;;;;;;37.90;3.51;99602.34;5074789;28;20083;-75
2022/04/18 09:49:39;;;;;;;3.78;1.70;;;;;;;39.11;2.93;99611.06;5093131;28;20055;-73
2022/04/18 09:52:11;;;;;;;3.83;1.60;;;;;;;39.38;2.60;99604.81;5096754;28;20042;-73
2022/04/18 09:54:51;;;;;;;6.45;1.70;;;;;;;39.42;2.52;99616.88;5112883;28;20040;-72
2022/04/18 09:57:28;;;;;;;3.67;1.52;;;;;;;39.52;2.76;99596.97;5095611;28;20048;-71
2022/04/18 09:59:55;;;;;;;3.10;1.65;;;;;;;38.31;2.71;99613.41;5095242;28;20166;-73
2022/04/18 10:02:22;;;;;;;3.15;1.63;;;;;;;39.08;2.78;99598.69;5113229;28;20043;-72
2022/04/18 10:04:48;;;;;;;3.30;1.75;;;;;;;39.98;2.34;99599.22;5061582;28;20040;-71
2022/04/18 10:07:14;;;;;;;8.40;1.90;;;;;;;40.88;2.11;99597.38;5081806;28;20051;-73
2022/04/18 10:09:41;;;;;;;2.97;1.60;;;;;;;40.11;2.57;99590.44;5111824;28;20043;-71
2022/04/18 10:12:09;;;;;;;7.78;1.77;;;;;;;40.26;2.40;99588.88;5111681;28;20047;-73
2022/04/18 10:14:37;;;;;;;11.38;2.42;;;;;;;40.45;2.28;99591.81;5112600;28;20050;-72
2022/04/18 10:17:03;;;;;;;8.63;2.35;;;;;;;41.09;2.11;99597.94;5077066;28;20046;-72
2022/04/18 10:19:28;;;;;;;9.23;2.63;;;;;;;41.76;1.97;99594.75;5095369;28;20428;-71
2022/04/18 10:22:15;;;;;;;4.75;1.90;;;;;;;42.19;1.56;99582.53;5094875;28;20040;-71
2022/04/18 10:24:48;;;;;;;3.60;1.52;;;;;;;41.67;1.89;99582.22;5094740;28;20047;-71
2022/04/18 10:27:39;;;;;;;3.63;1.85;;;;;;;41.52;1.73;99580.25;5078233;28;20096;-71
2022/04/18 10:30:06;;;;;;;9.73;2.17;;;;;;;41.06;2.10;99573.53;5076386;28;20047;-71
2022/04/18 10:32:31;;;;;;;5.78;2.00;;;;;;;41.22;1.96;99577.16;5094733;28;20048;-74
2022/04/18 10:35:00;;;;;;;3.45;1.60;;;;;;;41.21;1.64;99558.78;5112565;28;20048;-70
2022/04/18 10:37:27;;;;;;;5.18;2.03;;;;;;;41.53;1.62;99562.38;5112568;28;20044;-74
2022/04/18 10:40:04;;;;;;;9.85;2.17;;;;;;;41.04;1.67;99569.50;5094939;28;20040;-72
2022/04/18 10:42:32;;;;;;;6.15;1.92;;;;;;;40.90;1.83;99577.50;5071840;28;20040;-72
2022/04/18 10:45:07;;;;;;;9.45;2.22;;;;;;;40.87;1.91;99575.44;5108694;28;20051;-71
2022/04/18 10:47:55;;;;;;;4.22;2.00;;;;;;;40.09;1.68;99580.81;5094951;28;20071;-72
2022/04/18 10:50:22;;;;;;;3.22;1.85;;;;;;;39.31;2.31;99574.00;5111565;28;20078;-71
2022/04/18 10:53:17;;;;;;;10.35;2.13;;;;;;;39.76;2.25;99569.09;5110972;28;20047;-71
2022/04/18 10:55:51;;;;;;;3.38;1.80;;;;;;;39.87;2.03;99567.47;5074358;28;20142;-72
2022/04/18 10:58:21;;;;;;;7.32;2.50;;;;;;;40.19;2.22;99561.66;5074463;28;20057;-71
2022/04/18 11:00:57;;;;;;;5.22;2.20;;;;;;;40.22;1.95;99554.56;5091083;28;20100;-71
2022/04/18 11:03:35;;;;;;;5.13;2.00;;;;;;;40.21;2.01;99558.53;5055631;28;20131;-72
2022/04/18 11:06:16;;;;;;;3.92;1.65;;;;;;;39.68;1.99;99529.16;5092211;28;20048;-71
2022/04/18 11:09:02;;;;;;;5.38;1.58;;;;;;;39.47;2.15;99545.19;5090601;28;20573;-72
2022/04/18 11:11:56;;;;;;;5.35;1.50;;;;;;;38.71;2.67;99545.06;5073532;28;20567;-72
2022/04/18 11:14:27;;;;;;;3.67;1.50;;;;;;;38.23;2.90;99539.38;5056461;28;20044;-71
2022/04/18 11:16:54;;;;;;;4.68;1.67;;;;;;;37.89;2.96;99544.44;5092144;28;20126;-72
2022/04/18 11:19:24;;;;;;;7.55;1.83;;;;;;;37.34;3.31;99541.88;5110996;28;20092;-70
2022/04/18 11:24:40;;;;;;;10.15;1.80;;;;;;;35.50;3.68;99535.00;5111896;28;20057;-70
2022/04/18 11:27:16;;;;;;;5.38;1.95;;;;;;;33.83;4.85;99526.03;5094023;28;20044;-72
2022/04/18 11:29:57;;;;;;;7.72;1.63;;;;;;;32.29;5.13;99528.19;5110804;28;20043;-72
2022/04/18 11:32:24;;;;;;;3.22;1.45;;;;;;;30.62;5.97;99519.81;5076047;28;20039;-71
2022/04/18 11:34:52;;;;;;;6.03;1.83;;;;;;;29.22;6.66;99483.44;5110515;28;20053;-73
2022/04/18 11:37:25;;;;;;;6.95;1.90;;;;;;;28.44;7.37;99496.03;5111145;28;20483;-72
2022/04/18 11:39:54;;;;;;;5.80;1.67;;;;;;;27.50;7.95;99508.63;5110588;28;20132;-70
2022/04/18 11:42:38;;;;;;;4.28;1.35;;;;;;;26.94;8.23;99510.34;5093232;28;20061;-73
2022/04/18 11:45:15;;;;;;;;;;;;;;;26.58;8.84;99502.25;5078182;28;20044;-74
2022/04/18 11:47:44;;;;;;;;;;;;;;;26.10;8.75;99503.31;5077784;28;19931;-75
2022/04/18 11:50:11;;;;;;;12.63;1.83;;;;;;;24.79;9.76;99499.25;5089858;28;19920;-75
2022/04/18 11:52:41;;;;;;;8.05;1.60;;;;;;;24.00;10.45;99509.78;5056436;28;20040;-72
2022/04/18 11:55:18;;;;;;;3.38;1.77;;;;;;;23.23;11.33;99514.88;5056534;28;20040;-72
2022/04/18 11:57:45;;;;;;;12.80;1.67;;;;;;;22.70;11.49;99429.59;5040779;28;20047;-72
2022/04/18 12:06:44;;;;;;;4.22;1.77;;;;;;;22.80;11.29;99481.25;5039812;28;20048;-72
2022/04/18 12:08:36;;;;;;;4.50;1.60;;;;;;;21.85;12.24;99482.63;5058951;28;20610;-71
2022/04/18 12:11:02;;;;;;;6.32;1.63;;;;;;;21.12;12.90;99481.25;5039745;28;20135;-71
2022/04/18 12:13:28;;;;;;;9.30;2.42;;;;;;;20.94;13.23;99492.09;5072365;28;20080;-71
2022/04/18 12:15:54;;;;;;;6.20;2.53;;;;;;;20.83;14.37;99471.25;5089410;28;20087;-70
2022/04/18 12:18:20;;;;;;;5.53;2.45;;;;;;;20.83;13.33;99473.94;5056246;28;20040;-72
2022/04/18 12:20:51;;;;;;;6.13;2.60;;;;;;;20.61;13.93;99484.41;5090768;28;20560;-70
2022/04/18 12:23:20;;;;;;;5.25;1.75;;;;;;;20.19;14.34;99466.41;5055682;28;20101;-71
2022/04/18 12:25:47;;;;;;;9.38;1.70;;;;;;;19.78;14.76;99468.84;5055971;28;20052;-73
2022/04/18 12:28:15;;;;;;;5.30;2.13;;;;;;;19.93;14.43;99482.81;5072812;28;20048;-70
2022/04/18 12:30:42;;;;;;;3.92;1.70;;;;;;;19.57;14.71;99482.72;5073038;28;20044;-69